createdAt,value
2018-12-07T00:02:15.290Z,5.46
2018-12-07T00:04:45.700Z,5.47
2018-12-07T00:07:15.472Z,5.48
2018-12-07T00:09:45.338Z,5.42
2018-12-07T00:12:15.244Z,5.49
2018-12-07T00:14:45.836Z,5.49
2018-12-07T00:17:15.623Z,5.49
2018-12-07T00:19:48.215Z,5.53
2018-12-07T00:22:18.306Z,5.47
2018-12-07T00:24:48.320Z,5.49
2018-12-07T00:27:18.206Z,5.51
2018-12-07T00:29:57.463Z,5.52
2018-12-07T00:32:27.294Z,5.57
2018-12-07T00:34:58.746Z,5.58
2018-12-07T00:37:28.762Z,5.60
2018-12-07T00:39:58.495Z,5.60
2018-12-07T00:42:28.475Z,5.61
2018-12-07T00:44:58.292Z,5.64
2018-12-07T00:47:28.232Z,5.63
2018-12-07T00:49:58.254Z,5.63
2018-12-07T00:52:28.080Z,5.64
2018-12-07T00:54:58.123Z,5.69
2018-12-07T00:57:28.063Z,5.68
2018-12-07T00:59:58.430Z,5.74
2018-12-07T01:02:28.386Z,5.73
2018-12-07T01:04:58.303Z,5.72
2018-12-07T01:07:28.433Z,5.76
2018-12-07T01:09:58.113Z,5.85
2018-12-07T01:12:28.071Z,5.82
2018-12-07T01:14:58.011Z,5.84
2018-12-07T01:17:33.859Z,5.87
2018-12-07T01:20:03.542Z,5.92
2018-12-07T01:22:33.345Z,5.94
2018-12-07T01:25:03.449Z,6.00
2018-12-07T01:27:33.159Z,5.97
2018-12-07T01:30:03.151Z,5.97
2018-12-07T01:32:33.020Z,6.01
2018-12-07T01:35:02.966Z,6.04
2018-12-07T01:37:33.154Z,6.09
2018-12-07T01:40:03.672Z,6.10
2018-12-07T01:42:34.835Z,6.10
2018-12-07T01:45:04.808Z,6.07
2018-12-07T01:47:38.842Z,6.13
2018-12-07T01:50:08.853Z,6.22
2018-12-07T01:52:38.555Z,6.18
2018-12-07T01:55:08.594Z,6.27
2018-12-07T01:57:38.328Z,6.27
2018-12-07T02:00:09.039Z,6.25
2018-12-07T02:02:39.111Z,6.27
2018-12-07T02:05:09.735Z,6.23
2018-12-07T02:07:39.429Z,6.25
2018-12-07T02:10:10.582Z,6.18
2018-12-07T02:12:40.279Z,6.29
2018-12-07T02:15:10.343Z,6.31
2018-12-07T02:17:40.472Z,6.31
2018-12-07T02:20:10.152Z,6.30
2018-12-07T02:22:40.285Z,6.29
2018-12-07T02:25:10.309Z,6.27
2018-12-07T02:27:45.446Z,6.29
2018-12-07T02:30:23.920Z,6.32
2018-12-07T02:32:53.687Z,6.40
2018-12-07T02:35:23.378Z,6.38
2018-12-07T02:37:53.075Z,6.45
2018-12-07T02:40:28.236Z,6.41
2018-12-07T02:42:58.051Z,6.38
2018-12-07T02:45:28.169Z,6.37
2018-12-07T02:47:58.050Z,6.39
2018-12-07T02:50:28.213Z,6.43
2018-12-07T02:52:58.334Z,6.46
2018-12-07T02:55:28.383Z,6.41
2018-12-07T02:57:58.539Z,6.52
2018-12-07T03:00:29.472Z,6.48
2018-12-07T03:02:59.227Z,6.52
2018-12-07T03:05:29.265Z,6.48
2018-12-07T03:07:59.050Z,6.47
2018-12-07T03:10:29.105Z,6.53
2018-12-07T03:12:59.074Z,6.53
2018-12-07T03:15:29.145Z,6.52
2018-12-07T03:18:00.659Z,6.58
2018-12-07T03:20:30.525Z,6.56
2018-12-07T03:23:00.202Z,6.60
2018-12-07T03:25:30.296Z,6.58
2018-12-07T03:28:00.330Z,6.63
2018-12-07T03:30:30.319Z,6.63
2018-12-07T03:33:00.543Z,6.67
2018-12-07T03:35:30.262Z,6.67
2018-12-07T03:38:00.054Z,6.70
2018-12-07T03:40:30.092Z,6.73
2018-12-07T03:43:00.206Z,6.76
2018-12-07T03:45:30.322Z,6.75
2018-12-07T03:48:00.285Z,6.73
2018-12-07T03:50:30.503Z,6.81
2018-12-07T03:53:00.392Z,6.80
2018-12-07T03:55:30.110Z,6.79
2018-12-07T03:58:00.340Z,6.85
2018-12-07T04:00:30.333Z,6.77
2018-12-07T04:03:00.430Z,6.84
2018-12-07T04:05:30.161Z,6.88
2018-12-07T04:08:00.219Z,5.80
2018-12-07T04:10:30.331Z,6.94
2018-12-07T04:13:00.318Z,6.96
2018-12-07T04:15:30.809Z,6.93
2018-12-07T04:18:00.514Z,6.95
2018-12-07T04:20:30.226Z,6.97
2018-12-07T04:23:00.120Z,6.97
2018-12-07T04:25:33.688Z,6.95
2018-12-07T04:28:03.555Z,6.99
2018-12-07T04:30:33.442Z,6.98
2018-12-07T04:33:03.378Z,7.01
2018-12-07T04:35:33.410Z,7.01
2018-12-07T04:38:03.394Z,7.01
2018-12-07T04:40:33.462Z,7.07
2018-12-07T04:43:03.269Z,7.17
2018-12-07T04:45:33.394Z,7.17
2018-12-07T04:48:03.313Z,7.18
2018-12-07T04:50:33.364Z,7.15
2018-12-07T04:53:03.560Z,7.18
2018-12-07T04:55:33.467Z,7.21
2018-12-07T04:58:03.330Z,7.27
2018-12-07T05:00:33.136Z,7.21
2018-12-07T05:03:03.026Z,7.27
2018-12-07T05:05:33.149Z,7.30
2018-12-07T05:08:03.094Z,7.33
2018-12-07T05:10:33.109Z,7.35
2018-12-07T05:13:04.456Z,7.37
2018-12-07T05:15:34.139Z,7.39
2018-12-07T05:18:04.293Z,7.48
2018-12-07T05:20:34.072Z,7.48
2018-12-07T05:23:04.305Z,7.55
2018-12-07T05:25:34.219Z,7.61
2018-12-07T05:28:09.036Z,7.66
2018-12-07T05:30:39.313Z,7.66
2018-12-07T05:33:09.845Z,7.71
2018-12-07T05:35:39.917Z,7.72
2018-12-07T05:38:09.671Z,7.73
2018-12-07T05:40:39.488Z,7.79
2018-12-07T05:43:09.502Z,7.79
2018-12-07T05:45:39.269Z,7.82
2018-12-07T05:48:09.515Z,7.85
2018-12-07T05:50:39.207Z,7.85
2018-12-07T05:53:09.100Z,7.89
2018-12-07T05:55:39.147Z,7.92
2018-12-07T05:58:09.502Z,7.95
2018-12-07T06:00:39.408Z,7.95
2018-12-07T06:03:09.465Z,7.99
2018-12-07T06:05:40.575Z,8.06
2018-12-07T06:08:10.330Z,8.08
2018-12-07T06:10:40.699Z,8.09
2018-12-07T06:13:10.536Z,8.15
2018-12-07T06:15:40.419Z,8.17
2018-12-07T06:18:10.592Z,8.21
2018-12-07T06:20:40.460Z,8.27
2018-12-07T06:23:11.594Z,8.28
2018-12-07T06:25:41.582Z,8.31
2018-12-07T06:28:11.443Z,8.30
2018-12-07T06:30:53.940Z,8.28
2018-12-07T06:33:24.045Z,8.31
2018-12-07T06:35:54.174Z,8.37
2018-12-07T06:38:24.300Z,8.40
2018-12-07T06:40:54.705Z,8.40
2018-12-07T06:43:24.543Z,8.41
2018-12-07T06:45:54.400Z,8.48
2018-12-07T06:48:24.294Z,8.48
2018-12-07T06:50:54.100Z,8.51
2018-12-07T06:53:24.310Z,8.57
2018-12-07T06:55:54.389Z,8.56
2018-12-07T06:58:24.809Z,8.56
2018-12-07T07:00:54.644Z,8.57
2018-12-07T07:03:24.534Z,8.59
2018-12-07T07:05:55.516Z,8.66
2018-12-07T07:08:25.216Z,8.93
2018-12-07T07:10:55.183Z,8.92
2018-12-07T07:13:25.252Z,8.85
2018-12-07T07:15:55.128Z,8.84
2018-12-07T07:18:25.577Z,8.79
2018-12-07T07:20:56.738Z,8.82
2018-12-07T07:23:26.739Z,8.78
2018-12-07T07:25:56.679Z,8.55
2018-12-07T07:28:26.434Z,8.70
2018-12-07T07:30:56.529Z,8.68
2018-12-07T07:33:26.404Z,8.76
2018-12-07T07:35:56.843Z,8.75
2018-12-07T07:38:27.711Z,8.70
2018-12-07T07:40:57.610Z,8.65
2018-12-07T07:43:27.568Z,8.72
2018-12-07T07:45:57.440Z,8.75
2018-12-07T07:48:27.239Z,8.78
2018-12-07T07:50:57.698Z,8.78
2018-12-07T07:53:27.684Z,8.79
2018-12-07T07:55:57.482Z,8.80
2018-12-07T07:58:27.432Z,8.87
2018-12-07T08:00:57.322Z,8.82
2018-12-07T08:03:28.003Z,8.86
2018-12-07T08:05:58.272Z,8.84
2018-12-07T08:08:28.100Z,8.72
2018-12-07T08:10:58.671Z,8.62
2018-12-07T08:13:28.734Z,8.88
2018-12-07T08:15:58.505Z,8.90
2018-12-07T08:18:28.526Z,8.88
2018-12-07T08:20:58.343Z,8.90
2018-12-07T08:23:28.247Z,8.99
2018-12-07T08:25:58.503Z,8.97
2018-12-07T08:28:28.817Z,8.99
2018-12-07T08:30:58.824Z,9.05
2018-12-07T08:33:28.864Z,9.07
2018-12-07T08:35:58.729Z,9.11
2018-12-07T08:38:28.566Z,9.16
2018-12-07T08:40:58.628Z,9.25
2018-12-07T08:43:28.657Z,9.28
2018-12-07T08:45:58.387Z,9.32
2018-12-07T08:48:28.379Z,9.34
2018-12-07T08:50:58.227Z,9.38
2018-12-07T08:53:28.272Z,9.49
2018-12-07T08:55:58.335Z,9.54
2018-12-07T08:58:28.402Z,9.55
2018-12-07T09:00:59.583Z,9.58
2018-12-07T09:03:29.283Z,9.61
2018-12-07T09:06:03.316Z,9.60
2018-12-07T09:08:33.139Z,9.65
2018-12-07T09:11:03.218Z,9.66
2018-12-07T09:13:33.097Z,9.74
2018-12-07T09:16:03.393Z,9.77
2018-12-07T09:18:33.498Z,9.81
2018-12-07T09:21:03.516Z,9.82
2018-12-07T09:23:33.361Z,9.82
2018-12-07T09:26:03.428Z,9.86
2018-12-07T09:28:33.664Z,9.91
2018-12-07T09:31:03.688Z,9.92
2018-12-07T09:33:33.407Z,10.00
2018-12-07T09:36:03.544Z,9.99
2018-12-07T09:38:33.343Z,10.02
2018-12-07T09:41:03.424Z,10.06
2018-12-07T09:43:33.439Z,10.07
2018-12-07T09:46:03.142Z,10.13
2018-12-07T09:48:33.276Z,10.15
2018-12-07T09:51:03.220Z,10.17
2018-12-07T09:53:34.440Z,10.21
2018-12-07T09:56:04.715Z,10.21
2018-12-07T09:58:34.927Z,10.29
2018-12-07T10:01:04.761Z,10.32
2018-12-07T10:03:34.584Z,10.34
2018-12-07T10:06:04.377Z,10.31
2018-12-07T10:08:40.044Z,10.33
2018-12-07T10:11:10.084Z,10.35
2018-12-07T10:13:40.573Z,10.42
2018-12-07T10:16:10.338Z,10.42
2018-12-07T10:18:40.299Z,10.46
2018-12-07T10:21:10.444Z,10.49
2018-12-07T10:23:40.348Z,10.48
2018-12-07T10:26:11.823Z,10.53
2018-12-07T10:28:42.100Z,10.52
2018-12-07T10:31:12.405Z,10.59
2018-12-07T10:33:42.206Z,10.58
2018-12-07T10:36:12.303Z,10.62
2018-12-07T10:38:42.095Z,10.60
2018-12-07T10:41:12.161Z,10.58
2018-12-07T10:43:43.784Z,10.66
2018-12-07T10:46:13.556Z,10.68
2018-12-07T10:48:43.390Z,10.73
2018-12-07T10:51:13.638Z,10.71
2018-12-07T10:53:43.748Z,10.75
2018-12-07T10:56:13.808Z,10.75
2018-12-07T10:58:43.557Z,10.77
2018-12-07T11:01:18.266Z,10.79
2018-12-07T11:03:52.920Z,10.81
2018-12-07T11:06:28.121Z,10.81
2018-12-07T11:09:03.257Z,10.85
2018-12-07T11:11:38.229Z,10.84
2018-12-07T11:14:12.848Z,10.87
2018-12-07T11:16:48.062Z,10.87
2018-12-07T11:19:23.021Z,10.86
2018-12-07T11:21:59.119Z,10.81
2018-12-07T11:24:33.924Z,10.99
2018-12-07T11:27:14.140Z,10.94
2018-12-07T11:29:49.238Z,11.02
2018-12-07T11:32:30.608Z,11.05
2018-12-07T11:35:04.904Z,11.04
2018-12-07T11:37:35.232Z,11.16
2018-12-07T11:40:06.739Z,11.10
2018-12-07T11:42:36.671Z,11.06
2018-12-07T11:45:07.273Z,11.05
2018-12-07T11:47:37.155Z,11.04
2018-12-07T11:50:08.266Z,11.17
2018-12-07T11:52:38.113Z,11.19
2018-12-07T11:55:08.345Z,11.17
2018-12-07T11:57:38.391Z,11.16
2018-12-07T12:00:10.069Z,11.26
2018-12-07T12:02:40.297Z,11.23
2018-12-07T12:05:10.215Z,11.24
2018-12-07T12:07:40.211Z,11.26
2018-12-07T12:10:10.342Z,11.25
2018-12-07T12:12:40.422Z,11.22
2018-12-07T12:15:10.151Z,11.20
2018-12-07T12:17:40.108Z,11.23
2018-12-07T12:20:10.371Z,11.26
2018-12-07T12:22:40.252Z,11.33
2018-12-07T12:25:10.077Z,11.32
2018-12-07T12:27:40.051Z,11.40
2018-12-07T12:30:10.322Z,11.43
2018-12-07T12:32:40.419Z,11.44
2018-12-07T12:35:10.308Z,11.43
2018-12-07T12:37:40.089Z,11.44
2018-12-07T12:40:10.143Z,11.39
2018-12-07T12:42:40.259Z,11.40
2018-12-07T12:45:11.316Z,11.40
2018-12-07T12:47:41.437Z,11.37
2018-12-07T12:50:16.210Z,11.46
2018-12-07T12:52:46.338Z,11.43
2018-12-07T12:55:16.615Z,11.47
2018-12-07T12:57:46.524Z,11.52
2018-12-07T13:00:16.316Z,11.52
2018-12-07T13:02:46.451Z,11.48
2018-12-07T13:05:16.588Z,11.50
2018-12-07T13:07:46.278Z,11.47
2018-12-07T13:10:16.121Z,11.48
2018-12-07T13:12:46.148Z,11.47
2018-12-07T13:15:16.444Z,11.48
2018-12-07T13:17:46.655Z,11.45
2018-12-07T13:20:16.637Z,11.45
2018-12-07T13:22:46.580Z,11.44
2018-12-07T13:25:16.373Z,11.43
2018-12-07T13:27:46.584Z,11.45
2018-12-07T13:30:18.662Z,11.42
2018-12-07T13:32:48.995Z,11.44
2018-12-07T13:35:19.329Z,11.43
2018-12-07T13:37:49.429Z,11.47
2018-12-07T13:40:19.279Z,11.44
2018-12-07T13:42:49.566Z,11.43
2018-12-07T13:45:19.767Z,11.40
2018-12-07T13:47:50.319Z,11.40
2018-12-07T13:50:25.289Z,11.35
2018-12-07T13:52:55.352Z,11.40
2018-12-07T13:55:25.545Z,11.41
2018-12-07T13:57:55.886Z,11.35
2018-12-07T14:00:26.635Z,11.35
2018-12-07T14:02:56.827Z,11.34
2018-12-07T14:05:32.160Z,11.34
2018-12-07T14:08:00.031Z,11.31
2018-12-07T14:10:30.705Z,11.34
2018-12-07T14:13:00.949Z,11.23
2018-12-07T14:15:31.556Z,11.32
2018-12-07T14:18:02.018Z,11.26
2018-12-07T14:20:32.487Z,11.24
2018-12-07T14:23:02.702Z,11.25
2018-12-07T14:25:33.037Z,11.22
2018-12-07T14:28:03.287Z,11.26
2018-12-07T14:30:33.383Z,11.28
2018-12-07T14:33:03.697Z,11.28
2018-12-07T14:35:33.960Z,11.27
2018-12-07T14:38:04.105Z,11.25
2018-12-07T14:40:34.628Z,11.27
2018-12-07T14:43:05.513Z,11.21
2018-12-07T14:45:35.765Z,11.20
2018-12-07T14:48:06.271Z,11.25
2018-12-07T14:50:36.662Z,11.20
2018-12-07T14:53:06.740Z,11.15
2018-12-07T14:55:37.944Z,11.13
2018-12-07T14:58:08.202Z,11.12
2018-12-07T15:00:38.452Z,11.12
2018-12-07T15:03:08.555Z,11.13
2018-12-07T15:05:38.846Z,11.09
2018-12-07T15:08:09.539Z,11.17
2018-12-07T15:10:39.714Z,11.14
2018-12-07T15:13:10.327Z,11.12
2018-12-07T15:15:40.476Z,11.24
2018-12-07T15:18:10.820Z,11.13
2018-12-07T15:20:48.704Z,11.11
2018-12-07T15:23:19.199Z,11.04
2018-12-07T15:25:49.500Z,11.03
2018-12-07T15:28:19.622Z,11.04
2018-12-07T15:30:54.712Z,10.97
2018-12-07T15:33:25.324Z,10.88
2018-12-07T15:35:55.985Z,10.92
2018-12-07T15:38:26.742Z,10.89
2018-12-07T15:40:57.266Z,10.90
2018-12-07T15:43:27.699Z,10.89
2018-12-07T15:45:57.925Z,10.91
2018-12-07T15:48:28.601Z,10.80
2018-12-07T15:50:58.680Z,10.82
2018-12-07T15:53:29.486Z,10.76
2018-12-07T15:55:59.766Z,10.73
2018-12-07T15:58:30.222Z,10.81
2018-12-07T16:01:00.670Z,10.83
2018-12-07T16:03:32.368Z,10.79
2018-12-07T16:06:02.740Z,10.83
2018-12-07T16:08:33.406Z,10.84
2018-12-07T16:11:03.667Z,10.79
2018-12-07T16:13:33.832Z,10.91
2018-12-07T16:16:04.493Z,10.93
2018-12-07T16:18:35.169Z,10.97
2018-12-07T16:21:05.678Z,10.99
2018-12-07T16:23:35.877Z,11.09
2018-12-07T16:26:08.196Z,11.34
2018-12-07T16:28:38.492Z,11.72
2018-12-07T16:31:09.284Z,11.89
2018-12-07T16:33:39.332Z,11.70
2018-12-07T16:36:10.103Z,11.53
2018-12-07T16:38:40.427Z,11.37
2018-12-07T16:41:10.406Z,11.33
2018-12-07T16:43:41.696Z,11.31
2018-12-07T16:46:12.203Z,11.23
2018-12-07T16:48:43.086Z,11.15
2018-12-07T16:51:13.906Z,11.12
2018-12-07T16:53:49.209Z,11.07
2018-12-07T16:56:20.720Z,11.07
2018-12-07T16:58:50.873Z,11.06
2018-12-07T17:01:21.373Z,11.02
2018-12-07T17:03:52.983Z,11.06
2018-12-07T17:06:24.201Z,10.99
2018-12-07T17:08:55.700Z,10.99
2018-12-07T17:11:26.736Z,10.91
2018-12-07T17:13:56.981Z,10.90
2018-12-07T17:16:28.782Z,10.86
2018-12-07T17:18:59.599Z,10.94
2018-12-07T17:21:31.495Z,10.97
2018-12-07T17:24:02.452Z,10.95
2018-12-07T17:26:33.287Z,10.97
2018-12-07T17:29:03.599Z,11.02
2018-12-07T17:31:34.331Z,10.97
2018-12-07T17:36:45.928Z,11.01
2018-12-07T17:39:16.335Z,10.92
2018-12-07T17:41:46.818Z,11.00
2018-12-07T17:44:17.072Z,10.98
2018-12-07T17:46:48.098Z,10.92
2018-12-07T17:49:18.469Z,10.94
2018-12-07T17:51:49.797Z,10.97
2018-12-07T17:54:19.691Z,10.96
2018-12-07T17:56:50.329Z,10.92
2018-12-07T17:59:20.529Z,10.90
2018-12-07T18:01:50.337Z,10.98
2018-12-07T18:04:20.447Z,10.97
2018-12-07T18:06:50.547Z,10.87
2018-12-07T18:09:21.529Z,10.90
2018-12-07T18:11:51.669Z,10.94
2018-12-07T18:14:22.270Z,10.97
2018-12-07T18:16:52.618Z,10.97
2018-12-07T18:19:22.591Z,10.87
2018-12-07T18:21:52.574Z,10.96
2018-12-07T18:24:22.785Z,10.91
2018-12-07T18:26:53.962Z,10.79
2018-12-07T18:29:24.355Z,10.96
2018-12-07T18:31:54.619Z,10.99
2018-12-07T18:34:25.243Z,10.98
2018-12-07T18:36:56.263Z,10.94
2018-12-07T18:39:26.777Z,10.99
2018-12-07T18:41:57.526Z,11.05
2018-12-07T18:44:28.042Z,11.04
2018-12-07T18:46:59.559Z,11.04
2018-12-07T18:49:29.643Z,11.01
2018-12-07T18:52:00.555Z,11.03
2018-12-07T18:54:30.936Z,11.06
2018-12-07T18:57:00.845Z,11.06
2018-12-07T18:59:30.844Z,10.81
2018-12-07T19:02:01.340Z,11.10
2018-12-07T19:04:31.730Z,11.14
2018-12-07T19:07:02.503Z,11.15
2018-12-07T19:09:32.735Z,11.13
2018-12-07T19:12:02.783Z,11.14
2018-12-07T19:14:33.273Z,11.09
2018-12-07T19:17:03.601Z,11.12
2018-12-07T19:19:34.096Z,11.07
2018-12-07T19:22:04.558Z,10.93
2018-12-07T19:24:34.738Z,11.13
2018-12-07T19:27:05.706Z,11.16
2018-12-07T19:29:37.384Z,11.15
2018-12-07T19:32:07.642Z,11.14
2018-12-07T19:34:38.273Z,11.11
2018-12-07T19:37:08.790Z,11.10
2018-12-07T19:39:39.366Z,11.14
2018-12-07T19:42:10.537Z,11.19
2018-12-07T19:44:40.642Z,11.18
2018-12-07T19:47:11.720Z,11.20
2018-12-07T19:49:43.025Z,11.17
2018-12-07T19:52:13.982Z,11.18
2018-12-07T19:54:44.884Z,11.14
2018-12-07T19:57:15.338Z,11.13
2018-12-07T19:59:45.785Z,11.10
2018-12-07T20:02:17.598Z,11.07
2018-12-07T20:04:47.883Z,11.13
2018-12-07T20:07:20.880Z,11.03
2018-12-07T20:09:51.581Z,11.02
2018-12-07T20:12:22.030Z,10.97
2018-12-07T20:14:52.660Z,11.00
2018-12-07T20:17:23.140Z,10.97
2018-12-07T20:19:53.645Z,11.02
2018-12-07T20:22:24.474Z,10.95
2018-12-07T20:24:55.220Z,10.93
2018-12-07T20:27:25.812Z,10.94
2018-12-07T20:29:56.330Z,10.96
2018-12-07T20:32:26.646Z,10.98
2018-12-07T20:34:56.784Z,11.00
2018-12-07T20:37:27.454Z,11.05
2018-12-07T20:39:57.511Z,11.03
2018-12-07T20:42:28.693Z,11.07
2018-12-07T20:44:58.963Z,10.99
2018-12-07T20:47:29.886Z,11.07
2018-12-07T20:50:00.720Z,11.02
2018-12-07T20:52:31.011Z,11.06
2018-12-07T20:55:01.371Z,10.96
2018-12-07T20:57:31.740Z,10.94
2018-12-07T21:00:02.434Z,10.96
2018-12-07T21:02:33.736Z,10.95
2018-12-07T21:05:53.927Z,10.91
2018-12-07T21:08:43.771Z,10.94
2018-12-07T21:11:24.759Z,10.82
2018-12-07T21:14:03.760Z,10.73
2018-12-07T21:17:38.639Z,10.76
2018-12-07T21:20:18.721Z,10.84
2018-12-07T21:22:49.394Z,10.79
2018-12-07T21:25:20.527Z,9.65
2018-12-07T21:27:50.650Z,10.62
2018-12-07T21:30:58.272Z,10.57
2018-12-07T21:34:37.199Z,10.54
2018-12-07T21:37:07.526Z,10.51
2018-12-07T21:39:46.041Z,10.53
2018-12-07T21:42:18.193Z,10.49
2018-12-07T21:44:48.407Z,10.50
2018-12-07T21:47:39.609Z,10.49
2018-12-07T21:50:14.379Z,10.45
2018-12-07T21:52:44.941Z,10.49
2018-12-07T21:55:16.678Z,10.49
2018-12-07T21:57:47.016Z,10.40
2018-12-07T22:00:17.447Z,10.45
2018-12-07T22:02:47.781Z,10.41
2018-12-07T22:05:20.285Z,10.37
2018-12-07T22:07:50.631Z,10.35
2018-12-07T22:10:20.619Z,10.38
2018-12-07T22:12:50.691Z,10.35
2018-12-07T22:15:20.592Z,10.34
2018-12-07T22:17:50.794Z,10.33
2018-12-07T22:20:26.813Z,10.32
2018-12-07T22:22:56.640Z,10.33
2018-12-07T22:25:26.865Z,10.35
2018-12-07T22:27:56.962Z,10.37
2018-12-07T22:30:28.527Z,10.34
2018-12-07T22:32:58.630Z,10.31
2018-12-07T22:35:29.660Z,10.31
2018-12-07T22:38:00.123Z,10.29
2018-12-07T22:40:30.430Z,10.32
2018-12-07T22:43:00.975Z,10.26
2018-12-07T22:45:31.339Z,10.34
2018-12-07T22:48:01.682Z,10.32
2018-12-07T22:50:31.832Z,10.29
2018-12-07T22:53:01.677Z,10.29
2018-12-07T22:55:31.520Z,10.30
2018-12-07T22:58:01.435Z,10.27
2018-12-07T23:00:31.467Z,10.31
2018-12-07T23:03:01.460Z,10.23
2018-12-07T23:05:31.488Z,10.29
2018-12-07T23:08:01.295Z,10.35
2018-12-07T23:10:31.284Z,10.31
2018-12-07T23:13:01.226Z,10.35
2018-12-07T23:15:31.292Z,10.33
2018-12-07T23:18:01.454Z,10.38
2018-12-07T23:20:31.458Z,10.40
2018-12-07T23:23:01.548Z,10.32
2018-12-07T23:25:31.654Z,10.27
2018-12-07T23:28:01.457Z,10.29
2018-12-07T23:30:31.330Z,10.23
2018-12-07T23:33:01.456Z,10.20
2018-12-07T23:35:31.701Z,10.24
2018-12-07T23:38:01.577Z,9.64
2018-12-07T23:40:31.495Z,10.12
2018-12-07T23:43:02.469Z,10.11
2018-12-07T23:45:32.298Z,10.10
2018-12-07T23:48:02.536Z,10.12
2018-12-07T23:50:32.435Z,10.14
2018-12-07T23:53:02.362Z,10.10
2018-12-07T23:55:32.219Z,10.07
2018-12-07T23:58:02.521Z,10.12
